Middletown, Pennsylvania
Current Conditions -  °F | °C
As of 1:56 PM on Monday 22 Dec 2014 (Local Time) from KMDT Reporting Station
Haze Haze  
Wind Chill: 34°   Ceiling: 2000
Heat Index: 34°   Visibility: 6mi
Dew Point: 26°   Wind: 0mph
Humidity: 73%   Direction: NA
Pressure: 30.21"   Gusts: NA
Location:  40.2°N, 76.73°W
Report Text: KMDT 221856Z 00000KT 6SM HZ BKN020 OVC036 01/M03 A3021 RMK AO2 SLP234 T00111033
Loading
Personal Weather Stations






























Interactive Weather Map New forecast layout! Learn more

10-Day Weather Forecast

Advertisements
Track Severe Weather on mobile